CMA CGM Homere — MQBL6 — position and weather

sailwx.info

Track history (hours):
 
Tides and Currents Weather Stations Pressure Air Temp Water Temp Dewpoint Dewpoint Depression Visibility Wind Speed Wind Dir Waves Ship Positions

CMA CGM Homere

Last reported at 2014-Aug-07 15:19 UTC. Time now 2014-Aug-22 13:45 UTC.
Position N 18°00' W 063°03'.
Warning: this ship's position is 14 days out of date.

Length 170 m; draft 9.3 m.

Type: Ship (hazmat cat A). MMSI: 235052314.

Date/timePositionNaut miles runAvg speedWind from/ knotsBaromVisibWave heightAir tempDewpointWater temp
2014-Aug-07 15:19N 18°00' W 063°03'3 3.9
2014-Aug-07 14:31N 17°58' W 063°05'  
2014-Aug-02 23:18N 41°07' W 033°02'9018.9
2014-Aug-02 18:30N 41°56' W 031°20'  
2014-Jul-30 16:34N 49°39' W 000°35'2019.8
2014-Jul-30 15:34N 49°31' W 000°07'1110.8
2014-Jul-30 14:31N 49°29' E 000°10'0 0.0
2014-Jul-30 13:31N 49°29' E 000°10'0 0.0
2014-Jul-30 12:31N 49°29' E 000°10'0 0.0
2014-Jul-30 11:31N 49°29' E 000°10'0 0.0
2014-Jul-30 10:31N 49°29' E 000°10'0 0.0
2014-Jul-30 09:31N 49°29' E 000°10'0 0.0
2014-Jul-30 08:31N 49°29' E 000°10'0 0.0
2014-Jul-30 07:31N 49°29' E 000°10'0 0.0
2014-Jul-30 06:31N 49°29' E 000°10'0 0.0
2014-Jul-30 05:31N 49°29' E 000°10'0 0.0
2014-Jul-30 04:31N 49°29' E 000°10'0 0.0
2014-Jul-30 03:31N 49°29' E 000°10'0 0.0
2014-Jul-30 02:31N 49°29' E 000°10'0 0.0
2014-Jul-30 01:31N 49°29' E 000°10'0 0.0
2014-Jul-30 00:31N 49°29' E 000°10'0 0.0
2014-Jul-29 23:31N 49°29' E 000°10'0 0.0
2014-Jul-29 22:31N 49°29' E 000°10'0 0.0
2014-Jul-29 21:31N 49°29' E 000°10'0 0.0
2014-Jul-29 20:31N 49°29' E 000°10'0 0.0
2014-Jul-29 19:31N 49°29' E 000°10'1 0.7
2014-Jul-29 18:33N 49°28' E 000°09'1010.4
2014-Jul-29 17:33N 49°32' W 000°06'2 2.3
2014-Jul-29 16:30N 49°33' W 000°09'0 0.0
2014-Jul-29 15:33N 49°33' W 000°09'0 0.1
2014-Jul-29 14:33N 49°33' W 000°08'0 0.0
2014-Jul-29 13:33N 49°33' W 000°08'0 0.0
2014-Jul-29 12:33N 49°33' W 000°08'0 0.0
2014-Jul-29 11:33N 49°33' W 000°08'0 0.0
2014-Jul-29 10:31N 49°33' W 000°08'0 0.0
2014-Jul-29 09:31N 49°33' W 000°08'0 0.1
2014-Jul-29 08:33N 49°33' W 000°08'0 0.0
2014-Jul-29 07:30N 49°33' W 000°08'0 0.0
2014-Jul-29 06:30N 49°33' W 000°08'0 0.0
2014-Jul-29 05:24N 49°33' W 000°09'0 0.0
2014-Jul-29 04:30N 49°33' W 000°09'0 0.0
2014-Jul-29 03:33N 49°33' W 000°08'0 0.0
2014-Jul-29 02:33N 49°33' W 000°09'0 0.0
2014-Jul-29 01:30N 49°33' W 000°08'0 0.0
2014-Jul-29 00:30N 49°33' W 000°08'0 0.0
2014-Jul-28 23:33N 49°33' W 000°08'0 0.1
2014-Jul-28 22:24N 49°33' W 000°08'0 0.0
2014-Jul-28 21:33N 49°33' W 000°08'0 0.1
2014-Jul-28 20:33N 49°33' W 000°08'0 0.1
2014-Jul-28 19:33N 49°33' W 000°08'0 0.0
2014-Jul-28 18:30N 49°33' W 000°08'0 0.0
2014-Jul-28 17:24N 49°33' W 000°09'6 6.6
2014-Jul-28 16:33N 49°38' W 000°12'  
Track history (hours):
 
Tides and Currents Weather Stations Pressure Air Temp Water Temp Dewpoint Dewpoint Depression Visibility Wind Speed Wind Dir Waves Ship Positions

CMA CGM Homere

Last reported at 2014-Aug-07 15:19 UTC. Time now 2014-Aug-22 13:45 UTC.
Position N 18°00' W 063°03'.
Warning: this ship's position is 14 days out of date.

Length 170 m; draft 9.3 m.

Type: Ship (hazmat cat A). MMSI: 235052314.

Date/timePositionNaut miles runAvg speedWind from/ knotsBaromVisibWave heightAir tempDewpointWater temp
2014-Aug-07 15:19N 18°00' W 063°03'3 3.9
2014-Aug-07 14:31N 17°58' W 063°05'  
2014-Aug-02 23:18N 41°07' W 033°02'9018.9
2014-Aug-02 18:30N 41°56' W 031°20'  
2014-Jul-30 16:34N 49°39' W 000°35'2019.8
2014-Jul-30 15:34N 49°31' W 000°07'1110.8
2014-Jul-30 14:31N 49°29' E 000°10'0 0.0
2014-Jul-30 13:31N 49°29' E 000°10'0 0.0
2014-Jul-30 12:31N 49°29' E 000°10'0 0.0
2014-Jul-30 11:31N 49°29' E 000°10'0 0.0
2014-Jul-30 10:31N 49°29' E 000°10'0 0.0
2014-Jul-30 09:31N 49°29' E 000°10'0 0.0
2014-Jul-30 08:31N 49°29' E 000°10'0 0.0
2014-Jul-30 07:31N 49°29' E 000°10'0 0.0
2014-Jul-30 06:31N 49°29' E 000°10'0 0.0
2014-Jul-30 05:31N 49°29' E 000°10'0 0.0
2014-Jul-30 04:31N 49°29' E 000°10'0 0.0
2014-Jul-30 03:31N 49°29' E 000°10'0 0.0
2014-Jul-30 02:31N 49°29' E 000°10'0 0.0
2014-Jul-30 01:31N 49°29' E 000°10'0 0.0
2014-Jul-30 00:31N 49°29' E 000°10'0 0.0
2014-Jul-29 23:31N 49°29' E 000°10'0 0.0
2014-Jul-29 22:31N 49°29' E 000°10'0 0.0
2014-Jul-29 21:31N 49°29' E 000°10'0 0.0
2014-Jul-29 20:31N 49°29' E 000°10'0 0.0
2014-Jul-29 19:31N 49°29' E 000°10'1 0.7
2014-Jul-29 18:33N 49°28' E 000°09'1010.4
2014-Jul-29 17:33N 49°32' W 000°06'2 2.3
2014-Jul-29 16:30N 49°33' W 000°09'0 0.0
2014-Jul-29 15:33N 49°33' W 000°09'0 0.1
2014-Jul-29 14:33N 49°33' W 000°08'0 0.0
2014-Jul-29 13:33N 49°33' W 000°08'0 0.0
2014-Jul-29 12:33N 49°33' W 000°08'0 0.0
2014-Jul-29 11:33N 49°33' W 000°08'0 0.0
2014-Jul-29 10:31N 49°33' W 000°08'0 0.0
2014-Jul-29 09:31N 49°33' W 000°08'0 0.1
2014-Jul-29 08:33N 49°33' W 000°08'0 0.0
2014-Jul-29 07:30N 49°33' W 000°08'0 0.0
2014-Jul-29 06:30N 49°33' W 000°08'0 0.0
2014-Jul-29 05:24N 49°33' W 000°09'0 0.0
2014-Jul-29 04:30N 49°33' W 000°09'0 0.0
2014-Jul-29 03:33N 49°33' W 000°08'0 0.0
2014-Jul-29 02:33N 49°33' W 000°09'0 0.0
2014-Jul-29 01:30N 49°33' W 000°08'0 0.0
2014-Jul-29 00:30N 49°33' W 000°08'0 0.0
2014-Jul-28 23:33N 49°33' W 000°08'0 0.1
2014-Jul-28 22:24N 49°33' W 000°08'0 0.0
2014-Jul-28 21:33N 49°33' W 000°08'0 0.1
2014-Jul-28 20:33N 49°33' W 000°08'0 0.1
2014-Jul-28 19:33N 49°33' W 000°08'0 0.0
2014-Jul-28 18:30N 49°33' W 000°08'0 0.0
2014-Jul-28 17:24N 49°33' W 000°09'6 6.6
2014-Jul-28 16:33N 49°38' W 000°12'  

Dump ship's entire track history